Terminal Aerodrome Forecast
Issued by NWS

Home | Current Version | Previous Version | Text Only | Print | Product List | Glossary Off
Versions: 1 2 3 4 5 6 7 8 9 10 11 12 13 14 15

000
FTUS43 KMPX 292300
TAFRWF
TAF
KRWF 292336Z 3000/3024 32010KT P6SM FEW050
     FM300130 30003KT P6SM SKC
     FM301500 32008KT P6SM SCT050=

USA.gov is the U.S. government's official web portal to all federal, state and local government web resources and services.